Time;durP1;ratioP1;P1;durP2;ratioP2;P2;SDS_P1;SDS_P2;PMS_P1;PMS_P2;Temp;Humidity;BMP_temperature;BMP_pressure;BME280_temperature;BME280_humidity;BME280_pressure;Samples;Min_cycle;Max_cycle;Signal;HPM_P1;HPM_P2
2023/07/26 00:00:59;;;;;;;21.60;10.30;;;;;;;33.74;45.09;98360.11;108134;1254;64052;-68
2023/07/26 00:03:27;;;;;;;27.00;10.50;;;;;;;33.79;44.58;98358.39;108242;1254;61455;-70
2023/07/26 00:05:54;;;;;;;26.60;11.60;;;;;;;33.83;44.26;98355.45;108230;1253;63729;-70
2023/07/26 00:08:21;;;;;;;17.90;10.60;;;;;;;33.77;44.00;98360.27;108173;1254;61697;-69
2023/07/26 00:10:49;;;;;;;18.50;9.50;;;;;;;33.44;43.99;98353.73;108216;1251;60324;-71
2023/07/26 00:13:16;;;;;;;20.30;9.50;;;;;;;33.33;44.06;98354.05;108210;1252;64901;-70
2023/07/26 00:15:44;;;;;;;26.70;10.30;;;;;;;33.64;43.24;98350.13;108283;1253;60326;-69
2023/07/26 00:18:11;;;;;;;21.40;10.00;;;;;;;33.68;42.89;98343.48;108158;1254;64245;-70
2023/07/26 00:20:39;;;;;;;17.40;9.10;;;;;;;33.50;42.72;98347.13;108274;1255;60267;-69
2023/07/26 00:23:06;;;;;;;23.60;9.70;;;;;;;33.47;42.81;98349.80;108272;1253;60396;-71
2023/07/26 00:25:34;;;;;;;20.10;9.70;;;;;;;33.45;42.93;98350.92;108353;1252;64925;-69
2023/07/26 00:28:02;;;;;;;18.90;9.10;;;;;;;33.40;42.72;98347.23;108242;1254;61375;-69
2023/07/26 00:30:29;;;;;;;17.60;9.20;;;;;;;33.29;42.72;98350.83;108217;1254;63717;-70
2023/07/26 00:32:57;;;;;;;18.20;8.90;;;;;;;33.36;42.22;98344.27;108217;1256;59661;-70
2023/07/26 00:35:25;;;;;;;21.20;9.40;;;;;;;33.22;42.41;98345.09;108235;1254;61111;-70
2023/07/26 00:37:52;;;;;;;15.80;8.30;;;;;;;33.55;41.74;98338.05;108108;1254;64951;-69
2023/07/26 00:40:19;;;;;;;20.20;9.30;;;;;;;33.30;41.96;98344.41;108090;1253;61540;-69
2023/07/26 00:42:47;;;;;;;18.80;9.10;;;;;;;33.28;41.77;98345.35;108217;1253;63710;-70
2023/07/26 00:45:14;;;;;;;22.20;9.60;;;;;;;33.00;41.92;98350.95;108271;1252;60320;-70
2023/07/26 00:47:42;;;;;;;20.50;9.30;;;;;;;33.06;41.39;98349.89;108252;1252;60335;-68
2023/07/26 00:50:09;;;;;;;21.60;8.60;;;;;;;33.26;40.86;98356.34;108170;1254;64927;-68
2023/07/26 00:52:37;;;;;;;18.70;9.70;;;;;;;33.56;39.95;98351.96;108129;1254;61370;-69
2023/07/26 00:55:05;;;;;;;21.00;8.80;;;;;;;33.67;39.75;98351.90;108047;1254;62548;-68
2023/07/26 00:57:32;;;;;;;21.40;9.10;;;;;;;33.21;40.21;98353.96;108129;1254;62552;-68
2023/07/26 00:59:59;;;;;;;18.50;8.20;;;;;;;33.27;39.51;98351.29;108080;1251;60361;-71
2023/07/26 01:02:27;;;;;;;17.80;7.80;;;;;;;33.10;39.69;98349.13;108265;1254;63711;-68
2023/07/26 01:04:54;;;;;;;17.70;7.80;;;;;;;33.13;39.09;98348.10;108218;1254;61856;-70
2023/07/26 01:07:31;;;;;;;19.40;8.20;;;;;;;33.22;39.00;98351.58;108137;1256;62419;-68
2023/07/26 01:10:01;;;;;;;15.80;7.60;;;;;;;33.08;38.96;98352.70;108110;1253;60014;-67
2023/07/26 01:12:42;;;;;;;15.80;7.60;;;;;;;33.34;38.55;98353.85;108183;1254;59133;-69
2023/07/26 01:15:10;;;;;;;;;;;;;;;33.17;38.44;98360.21;108180;1254;72690;-69
2023/07/26 01:17:38;;;;;;;15.30;8.40;;;;;;;33.27;38.16;98365.74;108120;1253;68828;-68
2023/07/26 01:20:06;;;;;;;16.80;7.20;;;;;;;33.05;38.29;98362.00;108158;1253;63872;-71
2023/07/26 01:22:33;;;;;;;17.70;7.50;;;;;;;32.31;39.67;98356.02;108195;1256;61890;-69
2023/07/26 01:25:01;;;;;;;17.20;7.90;;;;;;;32.02;40.11;98355.48;108330;1251;60210;-69
2023/07/26 01:27:28;;;;;;;17.20;7.60;;;;;;;32.79;38.88;98351.16;108227;1251;65020;-69
2023/07/26 01:29:56;;;;;;;15.90;7.90;;;;;;;33.04;38.30;98360.37;108256;1256;72783;-71
2023/07/26 01:32:24;;;;;;;14.70;7.00;;;;;;;33.25;37.79;98355.45;108217;1251;62883;-69
2023/07/26 01:34:51;;;;;;;22.00;7.90;;;;;;;33.13;37.90;98360.69;108246;1253;60414;-69
2023/07/26 01:37:19;;;;;;;12.90;7.20;;;;;;;32.98;38.27;98365.38;108273;1251;60405;-68
2023/07/26 01:39:48;;;;;;;17.30;7.20;;;;;;;32.91;38.29;98377.67;108347;1256;65049;-71
2023/07/26 01:42:15;;;;;;;16.70;7.40;;;;;;;32.95;38.20;98383.58;108263;1251;60109;-69
2023/07/26 01:44:42;;;;;;;18.90;7.90;;;;;;;32.32;39.26;98385.09;108185;1251;71431;-70
2023/07/26 01:47:10;;;;;;;16.60;7.60;;;;;;;32.50;38.79;98390.55;108229;1253;60697;-69
2023/07/26 01:49:37;;;;;;;19.70;6.90;;;;;;;32.88;38.36;98399.86;108254;1251;60489;-70
2023/07/26 01:52:06;;;;;;;15.00;6.50;;;;;;;32.94;38.18;98407.71;108289;1251;73837;-69
2023/07/26 01:54:33;;;;;;;17.60;7.10;;;;;;;32.96;38.15;98409.68;108195;1251;60213;-70
2023/07/26 01:57:00;;;;;;;17.00;6.80;;;;;;;32.79;38.37;98413.16;108204;1251;73666;-69
2023/07/26 01:59:28;;;;;;;21.40;7.00;;;;;;;32.51;38.82;98417.31;108154;1251;60640;-69
2023/07/26 02:01:56;;;;;;;22.30;6.80;;;;;;;32.01;39.84;98421.91;108171;1251;60364;-69
2023/07/26 02:04:24;;;;;;;21.00;7.30;;;;;;;32.34;39.04;98422.02;108215;1251;73066;-70
2023/07/26 02:06:52;;;;;;;25.20;7.30;;;;;;;32.20;39.36;98426.70;108173;1251;70442;-69
2023/07/26 02:09:19;;;;;;;15.10;7.40;;;;;;;32.40;39.02;98431.52;108183;1251;72429;-70
2023/07/26 02:11:47;;;;;;;18.20;7.10;;;;;;;32.73;38.63;98433.66;108232;1251;60966;-70
2023/07/26 02:14:15;;;;;;;19.70;6.80;;;;;;;32.72;38.77;98433.34;108306;1251;60315;-69
2023/07/26 02:16:43;;;;;;;13.50;6.20;;;;;;;32.68;38.72;98428.98;108232;1250;72526;-69
2023/07/26 02:19:10;;;;;;;16.00;6.60;;;;;;;32.56;38.76;98431.88;108291;1255;61485;-70
2023/07/26 02:21:38;;;;;;;22.00;6.50;;;;;;;32.41;39.05;98433.08;108297;1251;71854;-70
2023/07/26 02:24:05;;;;;;;11.00;5.90;;;;;;;32.32;39.09;98437.66;108111;1253;61716;-69
2023/07/26 02:26:32;;;;;;;24.70;6.70;;;;;;;32.23;39.18;98442.63;108206;1253;59091;-69
2023/07/26 02:29:00;;;;;;;17.60;7.20;;;;;;;32.37;38.99;98442.79;108082;1252;63597;-69
2023/07/26 02:31:27;;;;;;;13.30;6.10;;;;;;;32.26;39.30;98446.52;108125;1252;70021;-68
2023/07/26 02:33:55;;;;;;;14.00;6.50;;;;;;;32.26;39.30;98452.73;108062;1254;71427;-69
2023/07/26 02:36:24;;;;;;;16.40;5.80;;;;;;;32.20;39.24;98461.95;108020;1259;60400;-68
2023/07/26 02:38:51;;;;;;;23.70;7.20;;;;;;;31.98;39.88;98471.89;108130;1256;59609;-68
2023/07/26 02:41:19;;;;;;;18.20;7.10;;;;;;;31.87;40.12;98472.17;108112;1253;73779;-69
2023/07/26 02:43:46;;;;;;;18.40;6.70;;;;;;;32.24;39.48;98473.08;108192;1253;70407;-69
2023/07/26 02:46:13;;;;;;;20.70;6.90;;;;;;;32.16;39.51;98472.54;108118;1253;73245;-70
2023/07/26 02:48:41;;;;;;;18.60;7.40;;;;;;;32.27;39.44;98471.54;108242;1254;61609;-69
2023/07/26 02:51:08;;;;;;;12.50;6.40;;;;;;;32.26;39.38;98468.20;108196;1252;60543;-70
2023/07/26 02:53:35;;;;;;;15.00;6.90;;;;;;;32.29;39.43;98474.80;108152;1253;73012;-69
2023/07/26 02:56:03;;;;;;;17.40;6.90;;;;;;;32.04;39.82;98485.55;108042;1252;70802;-69
2023/07/26 02:58:30;;;;;;;16.90;6.70;;;;;;;31.85;40.33;98492.20;108113;1253;72412;-69
2023/07/26 03:00:58;;;;;;;12.40;6.10;;;;;;;32.07;39.93;98499.89;108232;1253;60892;-70
2023/07/26 03:03:26;;;;;;;17.00;6.70;;;;;;;32.31;39.49;98496.90;108158;1253;60533;-69
2023/07/26 03:05:57;;;;;;;20.50;7.00;;;;;;;32.00;40.14;98512.94;108358;1254;72612;-69
2023/07/26 03:08:24;;;;;;;22.60;6.30;;;;;;;32.20;39.76;98523.67;108167;1253;68652;-69
2023/07/26 03:10:52;;;;;;;20.80;6.20;;;;;;;32.26;39.68;98524.30;108166;1253;71129;-69
2023/07/26 03:13:19;;;;;;;14.10;5.90;;;;;;;32.62;39.15;98514.08;108206;1254;60402;-69
2023/07/26 03:15:48;;;;;;;18.30;6.20;;;;;;;32.74;38.73;98515.73;108135;1254;60393;-69
2023/07/26 03:18:16;;;;;;;16.40;6.20;;;;;;;32.73;38.87;98514.78;108069;1254;64927;-70
2023/07/26 03:20:45;;;;;;;15.40;5.90;;;;;;;32.89;38.59;98511.45;108063;1254;69683;-70
2023/07/26 03:23:13;;;;;;;17.70;6.10;;;;;;;32.89;38.58;98515.85;108170;1254;63783;-70
2023/07/26 03:25:41;;;;;;;14.30;6.10;;;;;;;32.72;38.89;98525.00;108279;1251;61760;-70
2023/07/26 03:28:09;;;;;;;14.80;6.10;;;;;;;32.90;38.44;98542.27;108330;1251;60306;-70
2023/07/26 03:30:36;;;;;;;14.30;6.30;;;;;;;32.86;38.65;98551.23;108192;1251;74814;-69
2023/07/26 03:33:04;;;;;;;16.70;6.30;;;;;;;32.93;38.52;98548.16;108209;1251;72381;-69
2023/07/26 03:35:31;;;;;;;17.20;6.40;;;;;;;33.11;38.06;98550.15;108276;1254;62466;-70
2023/07/26 03:37:59;;;;;;;11.60;5.70;;;;;;;33.20;38.13;98544.06;108245;1251;60767;-69
2023/07/26 03:40:26;;;;;;;13.60;5.90;;;;;;;33.40;37.76;98538.17;108195;1251;60439;-69
2023/07/26 03:42:53;;;;;;;18.10;6.10;;;;;;;33.96;36.97;98542.91;108271;1256;67254;-70
2023/07/26 03:45:21;;;;;;;14.80;5.70;;;;;;;34.33;36.51;98557.40;108298;1251;61398;-69
2023/07/26 03:47:48;;;;;;;15.10;6.20;;;;;;;34.40;36.09;98568.49;108285;1251;63743;-70
2023/07/26 03:50:20;;;;;;;;;;;;;;;34.64;35.74;98564.97;108325;1254;60369;-68
2023/07/26 03:52:47;;;;;;;17.70;6.30;;;;;;;35.14;35.08;98568.13;108302;1251;60175;-71
2023/07/26 03:55:14;;;;;;;18.30;6.00;;;;;;;35.28;34.68;98571.77;108260;1255;64960;-71
2023/07/26 03:57:43;;;;;;;15.40;5.60;;;;;;;35.20;34.75;98577.02;108275;1251;61319;-71
2023/07/26 04:00:11;;;;;;;15.30;5.60;;;;;;;35.26;34.57;98579.56;108215;1257;63898;-68
2023/07/26 04:02:39;;;;;;;13.40;5.60;;;;;;;34.85;35.10;98587.48;108253;1251;60501;-70
2023/07/26 04:05:06;;;;;;;23.10;6.30;;;;;;;35.07;34.91;98587.34;108204;1251;60334;-70
2023/07/26 04:07:40;;;;;;;15.00;5.20;;;;;;;35.37;34.50;98593.80;108269;1251;65023;-70
2023/07/26 04:10:08;;;;;;;17.10;5.90;;;;;;;35.39;34.32;98599.58;108269;1251;60138;-70
2023/07/26 04:12:36;;;;;;;11.80;4.90;;;;;;;35.40;34.22;98597.34;108407;1251;63817;-70
2023/07/26 04:15:04;;;;;;;19.10;5.30;;;;;;;35.58;33.94;98596.58;108326;1255;61046;-70
2023/07/26 04:17:31;;;;;;;13.80;5.30;;;;;;;35.53;33.96;98597.02;108366;1251;60312;-69
2023/07/26 04:19:59;;;;;;;12.80;4.80;;;;;;;35.41;34.04;98598.39;108300;1251;63782;-68
2023/07/26 04:22:26;;;;;;;14.70;4.80;;;;;;;35.73;33.63;98594.16;108340;1251;61373;-69
2023/07/26 04:24:53;;;;;;;17.80;5.40;;;;;;;35.62;33.75;98593.83;108221;1254;63643;-70
2023/07/26 04:27:21;;;;;;;12.80;5.30;;;;;;;35.37;34.00;98593.05;108188;1254;60350;-69
2023/07/26 04:29:48;;;;;;;14.40;5.00;;;;;;;35.37;34.13;98590.41;108215;1253;60172;-70
2023/07/26 04:32:15;;;;;;;16.90;5.30;;;;;;;35.30;34.18;98584.35;108233;1254;64981;-69
2023/07/26 04:34:43;;;;;;;11.40;4.90;;;;;;;35.33;34.13;98580.27;108258;1254;61655;-70
2023/07/26 04:37:10;;;;;;;12.50;4.30;;;;;;;35.44;33.91;98575.02;108230;1254;63681;-71
2023/07/26 04:39:37;;;;;;;11.00;5.20;;;;;;;35.43;33.97;98583.48;108198;1254;60465;-69
2023/07/26 04:42:05;;;;;;;12.60;5.20;;;;;;;35.38;33.98;98596.94;108249;1251;60423;-69
2023/07/26 04:44:32;;;;;;;14.80;5.10;;;;;;;35.40;34.00;98603.48;108163;1254;64944;-70
2023/07/26 04:47:00;;;;;;;11.60;5.50;;;;;;;35.21;34.32;98592.23;108196;1254;60367;-70
2023/07/26 04:49:27;;;;;;;14.20;5.20;;;;;;;35.60;34.00;98585.82;108184;1254;63720;-71
2023/07/26 04:51:54;;;;;;;16.10;5.40;;;;;;;35.82;33.74;98576.19;108186;1256;60558;-69
2023/07/26 04:54:22;;;;;;;19.80;5.20;;;;;;;35.94;33.48;98577.40;108225;1257;60440;-70
2023/07/26 04:56:49;;;;;;;16.50;5.70;;;;;;;36.09;33.26;98578.20;108182;1253;63647;-69
2023/07/26 04:59:16;;;;;;;16.10;5.20;;;;;;;35.66;33.75;98579.53;108187;1256;60994;-70
2023/07/26 05:01:44;;;;;;;13.60;5.30;;;;;;;35.60;33.88;98588.11;108176;1254;63800;-69
2023/07/26 05:04:11;;;;;;;14.00;4.60;;;;;;;36.02;33.43;98587.46;108247;1252;60437;-69
2023/07/26 05:06:38;;;;;;;13.40;5.00;;;;;;;36.45;32.68;98579.70;108154;1254;59680;-70
2023/07/26 05:09:06;;;;;;;14.40;4.70;;;;;;;36.36;32.76;98588.90;108178;1253;64897;-70
2023/07/26 05:11:33;;;;;;;14.10;5.00;;;;;;;35.98;33.14;98598.23;108180;1254;62134;-70
2023/07/26 05:14:01;;;;;;;13.80;5.30;;;;;;;35.86;33.30;98603.98;108159;1254;63794;-70
2023/07/26 05:16:29;;;;;;;14.70;4.90;;;;;;;36.11;33.08;98606.79;108127;1254;60325;-70
2023/07/26 05:18:58;;;;;;;15.00;5.10;;;;;;;36.15;32.90;98601.82;108086;1253;59105;-69
2023/07/26 05:21:26;;;;;;;10.40;5.20;;;;;;;36.72;32.47;98598.27;108152;1252;63767;-69
2023/07/26 05:23:53;;;;;;;10.50;5.00;;;;;;;37.24;31.75;98597.73;108151;1256;60333;-68
2023/07/26 05:26:21;;;;;;;13.30;4.70;;;;;;;37.16;31.54;98616.86;108215;1255;63747;-69
2023/07/26 05:28:48;;;;;;;9.80;4.40;;;;;;;37.11;31.59;98626.89;108232;1252;59195;-69
2023/07/26 05:31:15;;;;;;;11.20;4.40;;;;;;;37.24;31.46;98619.17;108212;1252;60350;-70
2023/07/26 05:33:44;;;;;;;12.20;4.40;;;;;;;37.22;31.29;98623.60;108105;1251;218040;-71
2023/07/26 05:36:51;;;;;;;13.30;4.40;;;;;;;34.71;35.29;98626.80;104949;1290;600853;-69
2023/07/26 05:39:18;;;;;;;14.10;4.50;;;;;;;35.75;33.56;98629.52;107324;1264;59157;-70
2023/07/26 05:41:46;;;;;;;12.40;4.90;;;;;;;35.63;33.67;98635.02;107334;1263;59260;-70
2023/07/26 05:44:13;;;;;;;12.70;4.60;;;;;;;35.71;33.64;98636.91;107311;1263;63363;-71
2023/07/26 05:46:40;;;;;;;11.30;4.10;;;;;;;36.05;33.19;98630.92;107369;1264;68894;-69
2023/07/26 05:49:09;;;;;;;11.10;4.70;;;;;;;36.57;32.58;98634.62;107334;1265;66128;-70
2023/07/26 05:51:36;;;;;;;19.20;4.90;;;;;;;37.11;31.80;98638.04;107235;1263;265867;-70
2023/07/26 05:54:04;;;;;;;11.70;4.50;;;;;;;37.27;31.49;98633.11;107497;1262;59214;-69
2023/07/26 05:56:31;;;;;;;11.60;4.50;;;;;;;37.37;31.22;98635.80;107472;1264;63305;-70
2023/07/26 05:58:59;;;;;;;12.10;4.10;;;;;;;37.52;30.90;98630.98;107442;1263;61451;-70
2023/07/26 06:01:27;;;;;;;13.00;4.90;;;;;;;37.55;31.20;98629.46;107482;1263;63941;-71
2023/07/26 06:03:54;;;;;;;14.30;4.50;;;;;;;37.55;31.03;98624.83;107551;1263;59612;-70
2023/07/26 06:06:21;;;;;;;11.80;5.00;;;;;;;37.72;30.84;98620.21;107431;1264;59640;-70
2023/07/26 06:08:50;;;;;;;13.30;4.20;;;;;;;37.96;30.38;98624.13;107428;1262;64287;-72
2023/07/26 06:11:18;;;;;;;14.70;4.40;;;;;;;37.91;30.54;98627.52;107479;1262;61385;-72
2023/07/26 06:13:45;;;;;;;15.70;4.90;;;;;;;37.76;30.97;98620.40;107438;1264;64552;-71
2023/07/26 06:16:13;;;;;;;11.50;4.80;;;;;;;37.97;30.54;98619.96;107506;1263;57986;-69
2023/07/26 06:18:40;;;;;;;13.10;4.80;;;;;;;38.01;30.34;98629.23;107599;1262;59169;-70
2023/07/26 06:21:09;;;;;;;15.70;4.90;;;;;;;38.17;30.19;98621.69;107418;1264;64105;-71
2023/07/26 06:23:36;;;;;;;12.40;4.50;;;;;;;38.30;30.02;98610.64;107859;1262;60396;-71
2023/07/26 06:26:03;;;;;;;14.00;5.10;;;;;;;38.47;30.03;98608.13;107755;1258;63738;-70
2023/07/26 06:28:31;;;;;;;11.30;5.20;;;;;;;38.47;29.83;98619.06;107737;1257;59503;-70
2023/07/26 06:30:59;;;;;;;15.20;5.10;;;;;;;38.39;29.91;98624.17;107764;1259;59563;-70
2023/07/26 06:33:26;;;;;;;11.50;5.10;;;;;;;38.43;29.98;98626.92;107646;1258;64119;-72
2023/07/26 06:35:54;;;;;;;14.00;5.40;;;;;;;38.44;29.99;98629.95;107693;1259;61379;-71
2023/07/26 06:38:22;;;;;;;11.70;4.70;;;;;;;38.69;29.54;98620.09;107682;1259;63711;-70
2023/07/26 06:40:49;;;;;;;14.60;4.70;;;;;;;38.82;29.67;98623.92;107679;1260;59734;-70
2023/07/26 06:43:17;;;;;;;12.90;5.30;;;;;;;39.14;29.09;98633.00;107707;1260;59686;-69
2023/07/26 06:45:50;;;;;;;14.50;4.80;;;;;;;39.26;28.59;98636.27;107748;1260;62846;-70
2023/07/26 06:48:18;;;;;;;9.70;4.60;;;;;;;39.33;28.45;98645.38;107652;1263;60265;-70
2023/07/26 06:50:45;;;;;;;7.90;4.30;;;;;;;39.10;28.41;98652.71;108122;1254;71545;-73
2023/07/26 06:53:13;;;;;;;13.00;4.80;;;;;;;39.01;28.69;98659.23;108130;1254;59640;-70
2023/07/26 06:55:40;;;;;;;8.20;4.40;;;;;;;39.06;28.42;98656.41;108031;1254;59719;-71
2023/07/26 06:58:08;;;;;;;10.30;4.80;;;;;;;38.93;28.59;98668.11;108048;1254;64105;-71
2023/07/26 07:00:35;;;;;;;12.60;4.90;;;;;;;38.98;28.57;98676.90;108062;1254;60221;-71
2023/07/26 07:03:03;;;;;;;12.80;4.50;;;;;;;39.17;28.21;98677.70;108015;1254;62490;-71
2023/07/26 07:05:35;;;;;;;9.00;4.40;;;;;;;39.24;28.25;98676.69;108004;1254;59548;-70
2023/07/26 07:08:05;;;;;;;10.40;4.40;;;;;;;39.34;28.03;98672.73;108039;1254;59280;-70
2023/07/26 07:10:32;;;;;;;12.30;4.70;;;;;;;39.49;27.67;98672.98;108040;1254;62890;-70
2023/07/26 07:13:00;;;;;;;8.70;4.80;;;;;;;39.57;27.57;98673.73;108254;1254;61464;-71
2023/07/26 07:15:27;;;;;;;10.00;4.80;;;;;;;39.74;27.62;98672.61;108210;1253;63719;-69
2023/07/26 07:17:54;;;;;;;12.60;5.10;;;;;;;39.72;27.62;98680.33;108227;1253;59529;-69
2023/07/26 07:20:41;;;;;;;8.70;4.80;;;;;;;39.67;27.43;98681.07;108211;1254;59595;-71
2023/07/26 07:23:09;;;;;;;9.40;4.50;;;;;;;39.77;27.48;98685.55;108242;1253;62870;-71
2023/07/26 07:25:38;;;;;;;8.20;4.70;;;;;;;39.56;27.83;98695.14;108223;1254;61656;-70
2023/07/26 07:28:05;;;;;;;6.80;4.70;;;;;;;39.20;27.97;98700.31;108032;1253;62536;-72
2023/07/26 07:30:33;;;;;;;12.80;4.90;;;;;;;39.08;28.15;98707.27;108196;1253;59494;-70
2023/07/26 07:33:02;;;;;;;9.60;5.00;;;;;;;38.97;28.34;98701.06;108172;1254;59602;-71
2023/07/26 07:35:30;;;;;;;9.80;4.80;;;;;;;38.56;28.81;98687.06;108058;1254;64231;-71
2023/07/26 07:37:58;;;;;;;8.80;4.60;;;;;;;38.38;29.06;98683.30;108046;1253;60191;-71
2023/07/26 07:40:26;;;;;;;12.70;4.80;;;;;;;38.74;28.46;98693.98;108019;1254;63882;-70
2023/07/26 07:42:53;;;;;;;12.20;4.60;;;;;;;38.94;28.19;98711.30;107983;1254;60006;-71
2023/07/26 07:45:21;;;;;;;10.30;5.20;;;;;;;38.55;28.58;98702.23;108004;1254;61968;-71
2023/07/26 07:47:48;;;;;;;19.50;4.80;;;;;;;38.75;28.34;98699.91;108063;1254;62973;-70
2023/07/26 07:50:16;;;;;;;7.60;4.20;;;;;;;38.81;28.45;98723.95;107990;1258;60101;-68
2023/07/26 07:52:44;;;;;;;9.00;4.90;;;;;;;38.91;28.44;98726.45;108005;1254;64278;-71
2023/07/26 07:55:11;;;;;;;8.80;4.60;;;;;;;39.27;28.22;98721.45;107725;1254;59552;-72
2023/07/26 07:57:39;;;;;;;9.20;4.80;;;;;;;39.48;27.80;98719.87;107997;1254;59542;-70
2023/07/26 08:00:09;;;;;;;10.50;4.60;;;;;;;39.37;27.66;98718.73;108018;1253;64161;-70
2023/07/26 08:02:39;;;;;;;10.00;4.60;;;;;;;39.12;28.00;98718.39;108000;1258;60106;-71
2023/07/26 08:05:06;;;;;;;7.60;4.60;;;;;;;39.48;27.93;98715.79;107999;1254;62427;-70
2023/07/26 08:07:34;;;;;;;10.70;4.60;;;;;;;40.14;27.06;98710.23;107994;1254;59614;-69
2023/07/26 08:10:01;;;;;;;9.40;4.30;;;;;;;40.91;26.27;98712.23;108010;1254;58740;-70
2023/07/26 08:12:29;;;;;;;8.50;4.30;;;;;;;41.32;25.37;98726.48;108035;1254;64146;-70
2023/07/26 08:14:56;;;;;;;7.20;4.10;;;;;;;41.36;24.70;98725.05;108056;1254;61406;-69
2023/07/26 08:17:24;;;;;;;7.50;4.20;;;;;;;41.34;25.24;98730.70;108020;1258;64144;-70
2023/07/26 08:19:51;;;;;;;10.70;4.10;;;;;;;41.00;25.74;98731.27;108116;1254;59632;-70
2023/07/26 08:22:19;;;;;;;8.70;4.70;;;;;;;40.90;25.82;98726.22;108148;1254;59684;-70
2023/07/26 08:24:50;;;;;;;11.00;4.70;;;;;;;41.20;25.86;98727.60;108050;1253;62873;-70
2023/07/26 08:27:18;;;;;;;12.40;5.50;;;;;;;41.34;25.62;98730.60;108023;1254;62143;-69
2023/07/26 08:29:46;;;;;;;11.40;4.60;;;;;;;41.65;25.49;98715.43;108030;1254;72664;-71
2023/07/26 08:32:13;;;;;;;10.50;4.60;;;;;;;41.84;25.23;98706.20;108117;1253;59749;-70
2023/07/26 08:34:40;;;;;;;9.00;4.20;;;;;;;42.02;25.03;98709.73;108073;1254;59515;-72
2023/07/26 08:37:09;;;;;;;8.10;4.50;;;;;;;41.76;25.00;98711.49;108321;1256;62904;-71
2023/07/26 08:39:36;;;;;;;11.90;4.30;;;;;;;41.58;24.76;98724.89;108306;1256;60483;-72
2023/07/26 08:42:04;;;;;;;12.80;4.50;;;;;;;41.52;25.01;98740.02;108241;1251;63727;-72
2023/07/26 08:44:31;;;;;;;10.20;4.70;;;;;;;41.32;25.11;98747.02;108274;1251;59535;-71
2023/07/26 08:46:59;;;;;;;6.50;3.70;;;;;;;41.06;25.46;98757.38;108094;1251;59535;-71
2023/07/26 08:49:27;;;;;;;7.90;3.80;;;;;;;40.94;25.50;98753.67;108283;1251;62849;-72
2023/07/26 08:51:54;;;;;;;5.40;3.70;;;;;;;41.04;25.41;98749.48;108138;1251;60087;-70
2023/07/26 08:54:24;;;;;;;9.30;4.10;;;;;;;41.07;25.12;98752.79;108206;1251;62420;-71
2023/07/26 08:56:52;;;;;;;9.20;4.20;;;;;;;40.76;25.49;98764.57;108274;1253;59280;-71
2023/07/26 08:59:19;;;;;;;6.80;4.20;;;;;;;40.64;25.90;98782.59;108250;1251;60032;-71
2023/07/26 09:01:47;;;;;;;8.60;4.40;;;;;;;40.43;26.27;98791.39;108313;1251;64100;-72
2023/07/26 09:04:30;;;;;;;9.40;4.10;;;;;;;39.92;26.79;98780.55;108323;1251;61735;-71
2023/07/26 09:07:04;;;;;;;9.60;4.00;;;;;;;39.39;27.40;98775.73;108347;1251;62481;-72
2023/07/26 09:09:32;;;;;;;6.30;4.60;;;;;;;38.99;27.94;98799.36;108265;1254;59550;-72
2023/07/26 09:12:00;;;;;;;10.10;4.40;;;;;;;38.51;28.62;98827.02;108374;1251;59576;-71
2023/07/26 09:26:42;;;;;;;13.50;4.40;;;;;;;36.20;32.46;98889.15;104681;1292;604755;-72
2023/07/26 09:29:13;;;;;;;14.20;5.10;;;;;;;37.05;32.84;98927.90;107069;1264;196531;-71
2023/07/26 09:31:42;;;;;;;12.70;5.30;;;;;;;36.68;34.28;98923.92;107260;1263;59031;-72
2023/07/26 09:34:14;;;;;;;8.50;5.20;;;;;;;36.02;35.65;98926.77;107339;1264;64594;-72
2023/07/26 09:36:47;;;;;;;10.20;5.20;;;;;;;35.45;36.63;98940.60;107552;1260;61399;-72
2023/07/26 09:39:16;;;;;;;8.50;5.40;;;;;;;35.02;37.67;98941.13;107573;1259;62656;-72
2023/07/26 09:41:45;;;;;;;9.00;5.70;;;;;;;34.76;38.33;98943.90;107564;1259;59343;-71
2023/07/26 09:44:15;;;;;;;9.80;5.20;;;;;;;34.69;39.07;98937.98;107558;1259;59270;-71
2023/07/26 09:46:50;;;;;;;10.30;5.40;;;;;;;34.60;39.78;98934.55;107546;1265;63483;-72
2023/07/26 09:49:19;;;;;;;10.40;5.90;;;;;;;34.49;40.16;98916.61;107594;1259;61567;-72
2023/07/26 09:51:53;;;;;;;15.30;5.70;;;;;;;34.43;40.28;98884.08;107579;1260;63711;-71
2023/07/26 09:54:31;;;;;;;11.10;5.80;;;;;;;34.43;40.09;98877.85;107577;1260;59536;-71
2023/07/26 09:57:02;;;;;;;15.30;6.20;;;;;;;34.40;41.00;98911.52;107555;1259;59531;-71
2023/07/26 09:59:31;;;;;;;9.90;5.70;;;;;;;34.31;41.73;98934.64;107523;1259;64142;-72
2023/07/26 10:02:06;;;;;;;13.60;6.00;;;;;;;34.28;41.73;98935.73;107428;1259;61371;-71
2023/07/26 10:04:38;;;;;;;11.60;6.00;;;;;;;34.04;42.53;98943.82;107513;1261;63803;-71
2023/07/26 10:07:11;;;;;;;8.10;5.60;;;;;;;34.29;42.67;98935.31;107795;1256;59865;-72
2023/07/26 10:09:47;;;;;;;10.30;6.50;;;;;;;34.47;42.73;98929.70;107807;1257;59635;-71
2023/07/26 10:12:14;;;;;;;9.70;5.90;;;;;;;34.85;42.04;98938.29;107823;1256;64126;-72
2023/07/26 10:14:42;;;;;;;10.40;5.60;;;;;;;35.24;41.04;98915.15;107868;1256;61627;-71
2023/07/26 10:17:10;;;;;;;9.40;5.40;;;;;;;35.29;39.57;98824.08;107855;1256;63771;-70
2023/07/26 10:19:37;;;;;;;11.20;5.80;;;;;;;35.46;38.75;98745.01;107809;1256;59820;-71
2023/07/26 10:22:07;;;;;;;14.10;6.00;;;;;;;35.66;39.00;98715.23;107706;1256;59738;-71
2023/07/26 10:24:34;;;;;;;11.80;5.70;;;;;;;36.15;39.62;98703.47;107598;1256;64132;-71
2023/07/26 10:27:01;;;;;;;12.20;5.00;;;;;;;36.37;39.36;98753.21;107546;1256;60203;-70
2023/07/26 10:29:29;;;;;;;7.30;4.90;;;;;;;36.58;38.82;98771.30;107590;1258;63758;-70
2023/07/26 10:32:03;;;;;;;7.60;4.90;;;;;;;36.90;38.74;98776.87;107569;1256;59130;-71
2023/07/26 10:34:30;;;;;;;8.30;5.00;;;;;;;37.24;36.69;98779.77;107716;1256;59629;-71
2023/07/26 10:36:58;;;;;;;10.50;4.80;;;;;;;37.57;35.53;98793.91;107700;1256;63109;-71
2023/07/26 10:39:30;;;;;;;7.30;5.20;;;;;;;37.35;35.42;98799.52;107587;1256;61391;-71
2023/07/26 10:41:57;;;;;;;7.00;4.60;;;;;;;36.86;35.59;98795.70;107719;1256;63786;-71
2023/07/26 10:44:25;;;;;;;6.40;4.60;;;;;;;37.01;35.85;98788.92;107737;1256;59755;-71
2023/07/26 10:47:10;;;;;;;7.00;4.50;;;;;;;37.16;35.69;98782.80;107730;1256;59621;-70
2023/07/26 10:49:38;;;;;;;6.20;4.50;;;;;;;36.82;36.06;98777.05;107751;1256;64240;-72
2023/07/26 10:52:05;;;;;;;7.60;4.60;;;;;;;36.73;36.37;98785.16;107539;1256;62357;-71
2023/07/26 10:54:46;;;;;;;7.20;4.40;;;;;;;36.77;35.77;98786.02;107774;1256;65944;-71
2023/07/26 10:57:26;;;;;;;7.90;4.70;;;;;;;36.89;35.91;98780.20;107683;1256;59564;-74
2023/07/26 11:00:01;;;;;;;7.90;4.50;;;;;;;37.07;35.43;98777.73;107706;1256;59714;-72
2023/07/26 11:02:45;;;;;;;7.10;4.10;;;;;;;37.33;34.85;98773.19;107710;1256;62827;-69
2023/07/26 11:05:17;;;;;;;5.50;4.10;;;;;;;37.55;33.84;98770.88;107726;1256;60101;-71
2023/07/26 11:07:48;;;;;;;9.10;4.20;;;;;;;37.59;33.38;98776.99;107777;1256;62537;-70
2023/07/26 11:10:22;;;;;;;6.00;4.00;;;;;;;37.52;33.01;98785.46;107777;1256;59734;-69
2023/07/26 11:13:10;;;;;;;7.80;4.20;;;;;;;37.82;33.12;98779.80;107762;1262;59529;-70
2023/07/26 11:15:41;;;;;;;8.50;4.50;;;;;;;38.40;32.75;98778.92;107731;1262;64458;-71
2023/07/26 11:18:29;;;;;;;4.90;4.00;;;;;;;38.94;31.71;98776.34;107724;1256;70296;-71
2023/07/26 11:20:57;;;;;;;5.80;3.80;;;;;;;39.39;30.69;98776.58;107709;1258;63780;-71
2023/07/26 11:23:25;;;;;;;5.70;3.40;;;;;;;39.47;30.59;98778.21;107743;1257;59562;-70
2023/07/26 11:26:03;;;;;;;6.50;3.60;;;;;;;39.67;29.72;98778.48;107668;1256;59563;-70
2023/07/26 11:28:32;;;;;;;5.20;3.40;;;;;;;39.81;29.50;98778.13;107705;1256;62900;-72
2023/07/26 11:31:00;;;;;;;4.90;3.50;;;;;;;39.74;29.90;98791.19;107580;1256;60528;-72
2023/07/26 11:33:31;;;;;;;3.80;3.10;;;;;;;40.11;29.47;98792.66;107714;1256;63811;-70
2023/07/26 11:36:00;;;;;;;4.80;3.00;;;;;;;40.14;28.34;98801.24;107704;1256;59644;-72
2023/07/26 11:38:28;;;;;;;5.80;2.70;;;;;;;40.00;28.05;98804.27;107745;1256;60005;-72